sensor_id;sensor_type;location;lat;lon;timestamp;pressure;altitude;pressure_sealevel;temperature;humidity
79269;BME280;68714;48.586;7.772;2023-04-01T00:01:43;98646.97;;;10.62;60.86
79269;BME280;68714;48.586;7.772;2023-04-01T00:04:09;98661.97;;;10.61;60.96
79269;BME280;68714;48.586;7.772;2023-04-01T00:06:34;98649.44;;;10.65;60.65
79269;BME280;68714;48.586;7.772;2023-04-01T00:09:00;98654.53;;;10.68;60.51
79269;BME280;68714;48.586;7.772;2023-04-01T00:11:25;98650.75;;;10.72;60.56
79269;BME280;68714;48.586;7.772;2023-04-01T00:13:52;98654.53;;;10.68;61.00
79269;BME280;68714;48.586;7.772;2023-04-01T00:16:18;98639.72;;;10.65;60.89
79269;BME280;68714;48.586;7.772;2023-04-01T00:18:43;98641.78;;;10.60;61.31
79269;BME280;68714;48.586;7.772;2023-04-01T00:21:09;98637.63;;;10.56;61.27
79269;BME280;68714;48.586;7.772;2023-04-01T00:23:34;98637.91;;;10.51;61.37
79269;BME280;68714;48.586;7.772;2023-04-01T00:26:02;98636.31;;;10.49;61.64
79269;BME280;68714;48.586;7.772;2023-04-01T00:28:27;98640.19;;;10.43;61.55
79269;BME280;68714;48.586;7.772;2023-04-01T00:30:53;98642.91;;;10.42;61.82
79269;BME280;68714;48.586;7.772;2023-04-01T00:33:18;98643.09;;;10.39;61.69
79269;BME280;68714;48.586;7.772;2023-04-01T00:35:45;98655.50;;;10.37;61.67
79269;BME280;68714;48.586;7.772;2023-04-01T00:38:11;98646.75;;;10.36;61.66
79269;BME280;68714;48.586;7.772;2023-04-01T00:40:39;98657.28;;;10.36;61.84
79269;BME280;68714;48.586;7.772;2023-04-01T00:43:25;98651.53;;;10.29;62.26
79269;BME280;68714;48.586;7.772;2023-04-01T00:45:51;98643.59;;;10.29;61.52
79269;BME280;68714;48.586;7.772;2023-04-01T00:48:19;98665.91;;;10.24;61.79
79269;BME280;68714;48.586;7.772;2023-04-01T00:50:52;98653.72;;;10.21;61.25
79269;BME280;68714;48.586;7.772;2023-04-01T00:53:20;98641.50;;;10.20;61.46
79269;BME280;68714;48.586;7.772;2023-04-01T00:56:33;98637.25;;;10.17;61.49
79269;BME280;68714;48.586;7.772;2023-04-01T00:58:43;98645.34;;;10.14;61.33
79269;BME280;68714;48.586;7.772;2023-04-01T01:01:11;98639.50;;;10.09;61.01
79269;BME280;68714;48.586;7.772;2023-04-01T01:03:36;98644.78;;;10.09;61.32
79269;BME280;68714;48.586;7.772;2023-04-01T01:06:08;98645.81;;;10.07;61.41
79269;BME280;68714;48.586;7.772;2023-04-01T01:11:23;98641.81;;;9.99;61.29
79269;BME280;68714;48.586;7.772;2023-04-01T01:14:27;98639.44;;;9.95;61.26
79269;BME280;68714;48.586;7.772;2023-04-01T01:16:46;98635.97;;;9.94;61.29
79269;BME280;68714;48.586;7.772;2023-04-01T01:22:21;98649.59;;;9.87;61.37
79269;BME280;68714;48.586;7.772;2023-04-01T01:27:38;98629.88;;;9.78;61.95
79269;BME280;68714;48.586;7.772;2023-04-01T01:32:36;98625.81;;;9.72;61.40
79269;BME280;68714;48.586;7.772;2023-04-01T01:37:58;98622.84;;;9.62;61.77
79269;BME280;68714;48.586;7.772;2023-04-01T01:40:26;98621.22;;;9.60;61.48
79269;BME280;68714;48.586;7.772;2023-04-01T01:42:57;98618.69;;;9.58;61.55
79269;BME280;68714;48.586;7.772;2023-04-01T01:45:26;98618.88;;;9.55;61.46
79269;BME280;68714;48.586;7.772;2023-04-01T01:47:52;98626.84;;;9.54;61.45
79269;BME280;68714;48.586;7.772;2023-04-01T01:50:19;98627.91;;;9.51;61.60
79269;BME280;68714;48.586;7.772;2023-04-01T01:52:46;98632.38;;;9.49;61.67
79269;BME280;68714;48.586;7.772;2023-04-01T01:55:33;98626.53;;;9.44;62.11
79269;BME280;68714;48.586;7.772;2023-04-01T01:58:05;98626.53;;;9.44;61.83
79269;BME280;68714;48.586;7.772;2023-04-01T02:00:33;98617.19;;;9.38;62.12
79269;BME280;68714;48.586;7.772;2023-04-01T02:03:00;98623.31;;;9.39;61.92
79269;BME280;68714;48.586;7.772;2023-04-01T02:05:27;98624.25;;;9.38;61.96
79269;BME280;68714;48.586;7.772;2023-04-01T02:08:02;98629.50;;;9.38;62.31
79269;BME280;68714;48.586;7.772;2023-04-01T02:10:34;98621.59;;;9.38;62.12
79269;BME280;68714;48.586;7.772;2023-04-01T02:13:11;98621.69;;;9.36;62.18
79269;BME280;68714;48.586;7.772;2023-04-01T02:15:42;98623.50;;;9.36;62.31
79269;BME280;68714;48.586;7.772;2023-04-01T02:18:11;98619.16;;;9.35;62.23
79269;BME280;68714;48.586;7.772;2023-04-01T02:20:38;98621.78;;;9.35;62.20
79269;BME280;68714;48.586;7.772;2023-04-01T02:23:04;98624.66;;;9.30;62.58
79269;BME280;68714;48.586;7.772;2023-04-01T02:25:35;98628.47;;;9.24;62.55
79269;BME280;68714;48.586;7.772;2023-04-01T02:28:02;98629.53;;;9.22;62.78
79269;BME280;68714;48.586;7.772;2023-04-01T02:30:32;98637.34;;;9.23;62.90
79269;BME280;68714;48.586;7.772;2023-04-01T02:32:59;98637.41;;;9.22;62.89
79269;BME280;68714;48.586;7.772;2023-04-01T02:35:25;98627.72;;;9.22;63.18
79269;BME280;68714;48.586;7.772;2023-04-01T02:37:52;98633.00;;;9.22;63.10
79269;BME280;68714;48.586;7.772;2023-04-01T02:40:18;98623.38;;;9.21;63.06
79269;BME280;68714;48.586;7.772;2023-04-01T02:42:43;98629.53;;;9.22;63.00
79269;BME280;68714;48.586;7.772;2023-04-01T02:45:10;98624.25;;;9.22;63.02
79269;BME280;68714;48.586;7.772;2023-04-01T02:47:35;98615.50;;;9.21;63.15
79269;BME280;68714;48.586;7.772;2023-04-01T02:50:01;98609.31;;;9.22;63.31
79269;BME280;68714;48.586;7.772;2023-04-01T02:52:28;98611.94;;;9.22;63.22
79269;BME280;68714;48.586;7.772;2023-04-01T02:54:54;98612.69;;;9.24;63.25
79269;BME280;68714;48.586;7.772;2023-04-01T02:57:20;98620.66;;;9.23;63.31
79269;BME280;68714;48.586;7.772;2023-04-01T02:59:46;98606.66;;;9.22;63.52
79269;BME280;68714;48.586;7.772;2023-04-01T03:02:11;98611.94;;;9.22;63.81
79269;BME280;68714;48.586;7.772;2023-04-01T03:04:36;98611.94;;;9.22;63.51
79269;BME280;68714;48.586;7.772;2023-04-01T03:07:02;98611.84;;;9.24;63.69
79269;BME280;68714;48.586;7.772;2023-04-01T03:09:28;98617.94;;;9.24;63.73
79269;BME280;68714;48.586;7.772;2023-04-01T03:11:54;98614.41;;;9.25;63.87
79269;BME280;68714;48.586;7.772;2023-04-01T03:14:19;98603.78;;;9.27;64.03
79269;BME280;68714;48.586;7.772;2023-04-01T03:16:45;98614.31;;;9.27;64.11
79269;BME280;68714;48.586;7.772;2023-04-01T03:19:10;98604.63;;;9.27;64.00
79269;BME280;68714;48.586;7.772;2023-04-01T03:21:35;98600.22;;;9.28;64.35
79269;BME280;68714;48.586;7.772;2023-04-01T03:24:01;98610.59;;;9.31;63.99
79269;BME280;68714;48.586;7.772;2023-04-01T03:26:26;98609.53;;;9.34;64.08
79269;BME280;68714;48.586;7.772;2023-04-01T03:28:52;98602.50;;;9.34;64.06
79269;BME280;68714;48.586;7.772;2023-04-01T03:31:18;98607.53;;;9.39;63.87
79269;BME280;68714;48.586;7.772;2023-04-01T03:33:44;98602.00;;;9.43;63.85
79269;BME280;68714;48.586;7.772;2023-04-01T03:36:10;98607.16;;;9.45;63.80
79269;BME280;68714;48.586;7.772;2023-04-01T03:38:38;98602.56;;;9.49;63.70
79269;BME280;68714;48.586;7.772;2023-04-01T03:41:04;98606.91;;;9.50;63.57
79269;BME280;68714;48.586;7.772;2023-04-01T03:43:29;98589.06;;;9.55;63.57
79269;BME280;68714;48.586;7.772;2023-04-01T03:45:55;98590.59;;;9.59;63.23
79269;BME280;68714;48.586;7.772;2023-04-01T03:48:22;98590.31;;;9.63;63.09
79269;BME280;68714;48.586;7.772;2023-04-01T03:50:48;98592.69;;;9.68;62.81
79269;BME280;68714;48.586;7.772;2023-04-01T03:53:13;98588.09;;;9.72;62.95
79269;BME280;68714;48.586;7.772;2023-04-01T03:55:40;98594.88;;;9.76;62.78
79269;BME280;68714;48.586;7.772;2023-04-01T03:58:07;98594.63;;;9.80;62.34
79269;BME280;68714;48.586;7.772;2023-04-01T04:00:32;98593.56;;;9.83;62.22
79269;BME280;68714;48.586;7.772;2023-04-01T04:02:58;98581.06;;;9.87;62.01
79269;BME280;68714;48.586;7.772;2023-04-01T04:05:25;98588.81;;;9.90;62.01
79269;BME280;68714;48.586;7.772;2023-04-01T04:07:51;98586.81;;;9.93;61.79
79269;BME280;68714;48.586;7.772;2023-04-01T04:10:17;98587.50;;;9.97;61.79
79269;BME280;68714;48.586;7.772;2023-04-01T04:12:43;98579.53;;;9.98;61.58
79269;BME280;68714;48.586;7.772;2023-04-01T04:15:09;98583.00;;;9.99;61.52
79269;BME280;68714;48.586;7.772;2023-04-01T04:17:34;98582.91;;;10.00;61.51
79269;BME280;68714;48.586;7.772;2023-04-01T04:20:00;98575.81;;;10.01;61.18
79269;BME280;68714;48.586;7.772;2023-04-01T04:22:25;98581.19;;;9.99;61.30
79269;BME280;68714;48.586;7.772;2023-04-01T04:24:51;98581.97;;;10.02;61.03
79269;BME280;68714;48.586;7.772;2023-04-01T04:27:16;98585.44;;;10.02;61.19
79269;BME280;68714;48.586;7.772;2023-04-01T04:29:42;98579.44;;;10.00;61.09
79269;BME280;68714;48.586;7.772;2023-04-01T04:32:08;98584.88;;;9.97;61.08
79269;BME280;68714;48.586;7.772;2023-04-01T04:34:34;98578.91;;;9.93;61.02
79269;BME280;68714;48.586;7.772;2023-04-01T04:36:59;98577.25;;;9.92;61.27
79269;BME280;68714;48.586;7.772;2023-04-01T04:39:25;98571.19;;;9.90;60.90
79269;BME280;68714;48.586;7.772;2023-04-01T04:41:50;98563.56;;;9.86;60.85
79269;BME280;68714;48.586;7.772;2023-04-01T04:44:16;98561.94;;;9.83;60.61
79269;BME280;68714;48.586;7.772;2023-04-01T04:46:41;98573.53;;;9.80;60.55
79269;BME280;68714;48.586;7.772;2023-04-01T04:49:07;98557.81;;;9.79;60.44
79269;BME280;68714;48.586;7.772;2023-04-01T04:51:33;98558.00;;;9.76;60.46
79269;BME280;68714;48.586;7.772;2023-04-01T04:54:01;98554.56;;;9.74;60.36
79269;BME280;68714;48.586;7.772;2023-04-01T04:56:26;98563.44;;;9.73;60.29
79269;BME280;68714;48.586;7.772;2023-04-01T04:58:52;98553.00;;;9.71;60.39
79269;BME280;68714;48.586;7.772;2023-04-01T05:01:18;98553.91;;;9.70;60.29
79269;BME280;68714;48.586;7.772;2023-04-01T05:03:44;98552.22;;;9.69;60.35
79269;BME280;68714;48.586;7.772;2023-04-01T05:06:12;98548.91;;;9.66;60.33
79269;BME280;68714;48.586;7.772;2023-04-01T05:08:38;98549.66;;;9.68;60.34
79269;BME280;68714;48.586;7.772;2023-04-01T05:11:07;98550.63;;;9.67;60.41
79269;BME280;68714;48.586;7.772;2023-04-01T05:13:35;98556.72;;;9.67;60.46
79269;BME280;68714;48.586;7.772;2023-04-01T05:16:01;98559.47;;;9.66;60.38
79269;BME280;68714;48.586;7.772;2023-04-01T05:18:26;98546.38;;;9.64;60.75
79269;BME280;68714;48.586;7.772;2023-04-01T05:20:53;98556.91;;;9.64;60.62
79269;BME280;68714;48.586;7.772;2023-04-01T05:23:20;98544.50;;;9.66;60.38
79269;BME280;68714;48.586;7.772;2023-04-01T05:25:48;98550.63;;;9.67;60.53
79269;BME280;68714;48.586;7.772;2023-04-01T05:28:13;98541.94;;;9.64;60.62
79269;BME280;68714;48.586;7.772;2023-04-01T05:30:40;98536.75;;;9.63;60.47
79269;BME280;68714;48.586;7.772;2023-04-01T05:33:07;98547.47;;;9.60;60.43
79269;BME280;68714;48.586;7.772;2023-04-01T05:35:32;98538.84;;;9.58;60.79
79269;BME280;68714;48.586;7.772;2023-04-01T05:37:58;98546.81;;;9.56;60.53
79269;BME280;68714;48.586;7.772;2023-04-01T05:40:23;98552.25;;;9.53;60.82
79269;BME280;68714;48.586;7.772;2023-04-01T05:42:49;98549.63;;;9.53;60.76
79269;BME280;68714;48.586;7.772;2023-04-01T05:45:14;98547.94;;;9.52;61.10
79269;BME280;68714;48.586;7.772;2023-04-01T05:47:41;98553.19;;;9.52;60.98
79269;BME280;68714;48.586;7.772;2023-04-01T05:50:10;98552.34;;;9.52;61.03
79269;BME280;68714;48.586;7.772;2023-04-01T05:52:36;98542.84;;;9.49;60.98
79269;BME280;68714;48.586;7.772;2023-04-01T05:55:03;98555.16;;;9.49;61.16
79269;BME280;68714;48.586;7.772;2023-04-01T05:57:28;98553.38;;;9.49;61.11
79269;BME280;68714;48.586;7.772;2023-04-01T05:59:54;98550.75;;;9.49;60.98
79269;BME280;68714;48.586;7.772;2023-04-01T06:02:19;98559.59;;;9.48;61.47
79269;BME280;68714;48.586;7.772;2023-04-01T06:04:45;98550.00;;;9.47;61.63
79269;BME280;68714;48.586;7.772;2023-04-01T06:07:12;98559.59;;;9.48;61.53
79269;BME280;68714;48.586;7.772;2023-04-01T06:09:38;98561.44;;;9.46;61.64
79269;BME280;68714;48.586;7.772;2023-04-01T06:17:32;98560.88;;;9.41;62.74
79269;BME280;68714;48.586;7.772;2023-04-01T06:22:55;98573.28;;;9.39;62.19
79269;BME280;68714;48.586;7.772;2023-04-01T06:30:53;98584.66;;;9.39;62.99
79269;BME280;68714;48.586;7.772;2023-04-01T06:36:36;98580.41;;;9.37;63.06
79269;BME280;68714;48.586;7.772;2023-04-01T06:39:17;98571.75;;;9.35;63.45
79269;BME280;68714;48.586;7.772;2023-04-01T06:50:21;98574.81;;;9.27;64.91
79269;BME280;68714;48.586;7.772;2023-04-01T06:53:17;98577.72;;;9.22;64.01
79269;BME280;68714;48.586;7.772;2023-04-01T06:55:50;98577.72;;;9.22;63.96
79269;BME280;68714;48.586;7.772;2023-04-01T06:58:23;98581.34;;;9.20;64.17
79269;BME280;68714;48.586;7.772;2023-04-01T07:00:53;98582.13;;;9.22;64.41
79269;BME280;68714;48.586;7.772;2023-04-01T07:06:08;98576.94;;;9.20;64.29
79269;BME280;68714;48.586;7.772;2023-04-01T07:08:37;98577.00;;;9.19;64.61
79269;BME280;68714;48.586;7.772;2023-04-01T07:11:25;98582.53;;;9.14;67.27
79269;BME280;68714;48.586;7.772;2023-04-01T07:14:28;98582.53;;;9.14;67.34
79269;BME280;68714;48.586;7.772;2023-04-01T07:19:44;98583.16;;;9.19;65.91
79269;BME280;68714;48.586;7.772;2023-04-01T07:22:32;98579.50;;;9.22;66.41
79269;BME280;68714;48.586;7.772;2023-04-01T07:25:02;98585.34;;;9.27;65.42
79269;BME280;68714;48.586;7.772;2023-04-01T07:27:28;98584.25;;;9.31;65.48
79269;BME280;68714;48.586;7.772;2023-04-01T07:29:56;98591.91;;;9.36;65.16
79269;BME280;68714;48.586;7.772;2023-04-01T07:32:42;98593.41;;;9.40;66.33
79269;BME280;68714;48.586;7.772;2023-04-01T07:38:42;98591.81;;;9.37;67.76
79269;BME280;68714;48.586;7.772;2023-04-01T07:49:11;98608.88;;;9.30;66.67
79269;BME280;68714;48.586;7.772;2023-04-01T08:04:28;98608.38;;;9.23;66.45
79269;BME280;68714;48.586;7.772;2023-04-01T08:07:10;98607.59;;;9.21;66.33
79269;BME280;68714;48.586;7.772;2023-04-01T08:12:27;98621.53;;;9.23;65.97
79269;BME280;68714;48.586;7.772;2023-04-01T08:20:25;98621.28;;;9.28;67.71
79269;BME280;68714;48.586;7.772;2023-04-01T08:23:17;98625.34;;;9.34;66.53
79269;BME280;68714;48.586;7.772;2023-04-01T08:25:50;98624.25;;;9.38;66.34
79269;BME280;68714;48.586;7.772;2023-04-01T08:28:39;98627.53;;;9.41;67.25
79269;BME280;68714;48.586;7.772;2023-04-01T08:31:11;98627.53;;;9.41;68.07
79269;BME280;68714;48.586;7.772;2023-04-01T08:33:37;98636.06;;;9.46;66.04
79269;BME280;68714;48.586;7.772;2023-04-01T08:36:19;98630.53;;;9.51;66.50
79269;BME280;68714;48.586;7.772;2023-04-01T08:38:52;98642.81;;;9.51;67.31
79269;BME280;68714;48.586;7.772;2023-04-01T08:53:12;98650.72;;;9.67;66.56
79269;BME280;68714;48.586;7.772;2023-04-01T08:55:51;98649.50;;;9.72;66.13
79269;BME280;68714;48.586;7.772;2023-04-01T09:01:11;98650.38;;;9.73;65.92
79269;BME280;68714;48.586;7.772;2023-04-01T09:04:03;98649.44;;;9.74;66.99
79269;BME280;68714;48.586;7.772;2023-04-01T09:06:37;98654.59;;;9.75;66.20
79269;BME280;68714;48.586;7.772;2023-04-01T09:17:42;98666.16;;;9.89;65.50
79269;BME280;68714;48.586;7.772;2023-04-01T09:36:45;98668.25;;;9.98;64.53
79269;BME280;68714;48.586;7.772;2023-04-01T09:39:32;98667.16;;;10.02;64.58
79269;BME280;68714;48.586;7.772;2023-04-01T09:50:33;98670.97;;;10.12;63.84
79269;BME280;68714;48.586;7.772;2023-04-01T09:53:32;98673.69;;;10.11;63.84
79269;BME280;68714;48.586;7.772;2023-04-01T10:11:15;98677.56;;;10.20;63.83
79269;BME280;68714;48.586;7.772;2023-04-01T10:36:46;98693.91;;;10.57;62.57
79269;BME280;68714;48.586;7.772;2023-04-01T10:39:34;98698.81;;;10.63;62.34
79269;BME280;68714;48.586;7.772;2023-04-01T10:47:53;98699.94;;;10.73;61.82
79269;BME280;68714;48.586;7.772;2023-04-01T10:50:54;98686.09;;;10.69;60.35
79269;BME280;68714;48.586;7.772;2023-04-01T10:53:36;98690.25;;;10.74;61.05
79269;BME280;68714;48.586;7.772;2023-04-01T10:56:39;98689.66;;;10.68;60.00
79269;BME280;68714;48.586;7.772;2023-04-01T10:59:32;98690.34;;;10.72;60.67
79269;BME280;68714;48.586;7.772;2023-04-01T11:24:59;98689.88;;;10.80;59.02
79269;BME280;68714;48.586;7.772;2023-04-01T11:28:06;98708.25;;;10.81;59.49
79269;BME280;68714;48.586;7.772;2023-04-01T11:33:31;98714.56;;;10.79;58.94
79269;BME280;68714;48.586;7.772;2023-04-01T11:36:20;98716.75;;;10.86;59.46
79269;BME280;68714;48.586;7.772;2023-04-01T11:39:00;98715.53;;;10.92;59.98
79269;BME280;68714;48.586;7.772;2023-04-01T11:44:39;98709.00;;;10.83;59.69
79269;BME280;68714;48.586;7.772;2023-04-01T11:53:14;98735.69;;;10.93;59.54
79269;BME280;68714;48.586;7.772;2023-04-01T11:58:42;98733.72;;;10.97;59.51
79269;BME280;68714;48.586;7.772;2023-04-01T12:07:00;98739.38;;;11.05;59.79
79269;BME280;68714;48.586;7.772;2023-04-01T12:31:41;98754.63;;;10.85;61.40
79269;BME280;68714;48.586;7.772;2023-04-01T12:37:17;98760.28;;;10.79;61.42
79269;BME280;68714;48.586;7.772;2023-04-01T13:10:43;98759.25;;;10.96;61.86
79269;BME280;68714;48.586;7.772;2023-04-01T13:16:26;98754.94;;;10.95;61.58
79269;BME280;68714;48.586;7.772;2023-04-01T13:18:57;98764.25;;;11.01;61.90
79269;BME280;68714;48.586;7.772;2023-04-01T13:42:11;98761.06;;;11.10;61.88
79269;BME280;68714;48.586;7.772;2023-04-01T13:45:00;98759.09;;;11.14;61.32
79269;BME280;68714;48.586;7.772;2023-04-01T13:50:13;98756.84;;;11.22;61.37
79269;BME280;68714;48.586;7.772;2023-04-01T13:55:30;98768.25;;;11.37;60.48
79269;BME280;68714;48.586;7.772;2023-04-01T14:03:49;98757.94;;;11.47;58.65
79269;BME280;68714;48.586;7.772;2023-04-01T14:06:38;98770.97;;;11.50;58.54
79269;BME280;68714;48.586;7.772;2023-04-01T14:09:45;98766.56;;;11.50;58.08
79269;BME280;68714;48.586;7.772;2023-04-01T14:12:35;98773.41;;;11.53;58.53
79269;BME280;68714;48.586;7.772;2023-04-01T14:15:22;98778.59;;;11.54;58.57
79269;BME280;68714;48.586;7.772;2023-04-01T14:23:43;98779.38;;;11.56;58.71
79269;BME280;68714;48.586;7.772;2023-04-01T14:26:25;98793.53;;;11.55;58.98
79269;BME280;68714;48.586;7.772;2023-04-01T14:29:17;98783.91;;;11.54;58.47
79269;BME280;68714;48.586;7.772;2023-04-01T14:32:07;98783.59;;;11.59;58.77
79269;BME280;68714;48.586;7.772;2023-04-01T14:35:02;98776.56;;;11.59;58.59
79269;BME280;68714;48.586;7.772;2023-04-01T14:48:57;98769.63;;;11.86;58.75
79269;BME280;68714;48.586;7.772;2023-04-01T14:51:35;98768.38;;;11.91;58.44
79269;BME280;68714;48.586;7.772;2023-04-01T14:56:44;98767.44;;;12.07;58.13
79269;BME280;68714;48.586;7.772;2023-04-01T15:01:55;98761.44;;;12.18;57.75
79269;BME280;68714;48.586;7.772;2023-04-01T15:04:42;98759.53;;;12.20;58.01
79269;BME280;68714;48.586;7.772;2023-04-01T15:07:45;98757.81;;;12.19;57.24
79269;BME280;68714;48.586;7.772;2023-04-01T15:26:54;98758.28;;;12.25;56.62
79269;BME280;68714;48.586;7.772;2023-04-01T15:32:17;98760.34;;;12.35;56.95
79269;BME280;68714;48.586;7.772;2023-04-01T15:40:42;98757.28;;;12.41;56.54
79269;BME280;68714;48.586;7.772;2023-04-01T15:48:39;98759.81;;;12.42;55.07
79269;BME280;68714;48.586;7.772;2023-04-01T15:51:32;98760.13;;;12.38;55.74
79269;BME280;68714;48.586;7.772;2023-04-01T16:01:59;98752.03;;;12.26;56.52
79269;BME280;68714;48.586;7.772;2023-04-01T16:12:32;98738.56;;;12.17;56.75
79269;BME280;68714;48.586;7.772;2023-04-01T16:17:58;98744.91;;;12.14;57.23
79269;BME280;68714;48.586;7.772;2023-04-01T16:25:49;98740.97;;;12.07;57.39
79269;BME280;68714;48.586;7.772;2023-04-01T16:28:48;98740.63;;;11.99;56.81
79269;BME280;68714;48.586;7.772;2023-04-01T16:31:42;98735.53;;;11.95;57.52
79269;BME280;68714;48.586;7.772;2023-04-01T16:34:17;98748.00;;;11.93;57.73
79269;BME280;68714;48.586;7.772;2023-04-01T16:36:49;98753.28;;;11.93;57.59
79269;BME280;68714;48.586;7.772;2023-04-01T16:39:28;98827.47;;;11.90;56.59
79269;BME280;68714;48.586;7.772;2023-04-01T17:53:18;98879.66;;;10.68;64.07
79269;BME280;68714;48.586;7.772;2023-04-01T17:56:03;98886.16;;;10.63;62.22
79269;BME280;68714;48.586;7.772;2023-04-01T18:01:21;98886.50;;;10.57;63.19
79269;BME280;68714;48.586;7.772;2023-04-01T18:12:32;98920.34;;;10.48;64.50
79269;BME280;68714;48.586;7.772;2023-04-01T18:20:34;98916.59;;;10.37;64.84
79269;BME280;68714;48.586;7.772;2023-04-01T18:25:47;98910.13;;;10.26;64.22
79269;BME280;68714;48.586;7.772;2023-04-01T18:28:36;98904.22;;;10.21;64.79
79269;BME280;68714;48.586;7.772;2023-04-01T18:33:36;98903.56;;;10.17;64.55
79269;BME280;68714;48.586;7.772;2023-04-01T18:39:35;98907.56;;;10.25;64.76
79269;BME280;68714;48.586;7.772;2023-04-01T18:45:19;98916.31;;;10.25;64.44
79269;BME280;68714;48.586;7.772;2023-04-01T18:51:13;98919.03;;;10.24;64.43
79269;BME280;68714;48.586;7.772;2023-04-01T18:54:13;98921.75;;;10.22;64.73
79269;BME280;68714;48.586;7.772;2023-04-01T18:56:45;98947.13;;;10.25;64.53
79269;BME280;68714;48.586;7.772;2023-04-01T18:59:28;98939.28;;;10.23;64.72
79269;BME280;68714;48.586;7.772;2023-04-01T19:04:41;98963.41;;;10.33;64.56
79269;BME280;68714;48.586;7.772;2023-04-01T19:07:42;99019.09;;;10.27;67.44
79269;BME280;68714;48.586;7.772;2023-04-01T19:13:18;99013.88;;;9.92;66.00
79269;BME280;68714;48.586;7.772;2023-04-01T19:15:52;99013.66;;;9.79;66.78
79269;BME280;68714;48.586;7.772;2023-04-01T19:21:33;99005.22;;;9.55;66.87
79269;BME280;68714;48.586;7.772;2023-04-01T19:34:55;98989.09;;;9.26;66.12
79269;BME280;68714;48.586;7.772;2023-04-01T19:37:37;98991.81;;;9.24;66.33
79269;BME280;68714;48.586;7.772;2023-04-01T19:43:14;98996.44;;;9.19;67.88
79269;BME280;68714;48.586;7.772;2023-04-01T19:53:41;98988.13;;;9.09;66.66
79269;BME280;68714;48.586;7.772;2023-04-01T19:56:18;99000.44;;;9.09;67.04
79269;BME280;68714;48.586;7.772;2023-04-01T20:01:41;99004.94;;;9.07;66.57
79269;BME280;68714;48.586;7.772;2023-04-01T20:04:22;99000.59;;;9.06;66.75
79269;BME280;68714;48.586;7.772;2023-04-01T20:06:57;99013.91;;;9.03;69.22
79269;BME280;68714;48.586;7.772;2023-04-01T20:12:52;99021.66;;;9.06;67.48
79269;BME280;68714;48.586;7.772;2023-04-01T20:17:50;99023.66;;;9.01;68.42
79269;BME280;68714;48.586;7.772;2023-04-01T20:20:24;99019.25;;;9.01;66.80
79269;BME280;68714;48.586;7.772;2023-04-01T20:25:33;99024.50;;;9.01;66.57
79269;BME280;68714;48.586;7.772;2023-04-01T20:28:14;99033.19;;;9.03;66.64
79269;BME280;68714;48.586;7.772;2023-04-01T20:36:43;99036.25;;;8.94;67.03
79269;BME280;68714;48.586;7.772;2023-04-01T20:39:52;99034.63;;;8.91;66.90
79269;BME280;68714;48.586;7.772;2023-04-01T20:42:53;99041.72;;;8.89;67.36
79269;BME280;68714;48.586;7.772;2023-04-01T20:51:05;99045.16;;;8.91;66.31
79269;BME280;68714;48.586;7.772;2023-04-01T20:56:47;99057.38;;;8.92;67.01
79269;BME280;68714;48.586;7.772;2023-04-01T21:04:33;99061.56;;;8.97;66.43
79269;BME280;68714;48.586;7.772;2023-04-01T21:13:10;99060.50;;;9.01;66.37
79269;BME280;68714;48.586;7.772;2023-04-01T21:18:57;99067.38;;;9.03;66.49
79269;BME280;68714;48.586;7.772;2023-04-01T21:21:37;99083.13;;;9.05;66.25
79269;BME280;68714;48.586;7.772;2023-04-01T21:34:57;99085.66;;;9.06;67.48
79269;BME280;68714;48.586;7.772;2023-04-01T21:53:15;99088.22;;;9.08;66.00
79269;BME280;68714;48.586;7.772;2023-04-01T22:09:45;99098.84;;;9.06;65.98
79269;BME280;68714;48.586;7.772;2023-04-01T22:12:41;99102.47;;;9.04;66.50
79269;BME280;68714;48.586;7.772;2023-04-01T22:20:59;99097.91;;;9.07;66.04
79269;BME280;68714;48.586;7.772;2023-04-01T22:23:37;99097.84;;;9.09;66.11
79269;BME280;68714;48.586;7.772;2023-04-01T22:26:29;99100.53;;;9.07;66.22
79269;BME280;68714;48.586;7.772;2023-04-01T22:29:17;99097.16;;;9.05;66.17
79269;BME280;68714;48.586;7.772;2023-04-01T22:35:01;99102.56;;;9.02;66.27
79269;BME280;68714;48.586;7.772;2023-04-01T22:42:59;99097.88;;;8.90;66.79
79269;BME280;68714;48.586;7.772;2023-04-01T22:50:57;99114.16;;;8.79;66.60
79269;BME280;68714;48.586;7.772;2023-04-01T22:56:38;99116.91;;;8.76;66.57
79269;BME280;68714;48.586;7.772;2023-04-01T22:59:19;99118.59;;;8.77;66.37
79269;BME280;68714;48.586;7.772;2023-04-01T23:01:51;99122.94;;;8.78;66.52
79269;BME280;68714;48.586;7.772;2023-04-01T23:04:24;99124.66;;;8.79;66.17
79269;BME280;68714;48.586;7.772;2023-04-01T23:06:58;99128.22;;;8.78;66.42
79269;BME280;68714;48.586;7.772;2023-04-01T23:09:30;99133.34;;;8.81;66.37
79269;BME280;68714;48.586;7.772;2023-04-01T23:12:09;99135.06;;;8.82;66.30
79269;BME280;68714;48.586;7.772;2023-04-01T23:14:50;99130.69;;;8.81;66.50
79269;BME280;68714;48.586;7.772;2023-04-01T23:17:47;99135.34;;;8.76;66.25
79269;BME280;68714;48.586;7.772;2023-04-01T23:24:03;99130.91;;;8.77;66.23
79269;BME280;68714;48.586;7.772;2023-04-01T23:26:11;99124.59;;;8.81;66.42
79269;BME280;68714;48.586;7.772;2023-04-01T23:28:45;99127.94;;;8.84;66.20
79269;BME280;68714;48.586;7.772;2023-04-01T23:33:59;99140.09;;;8.87;66.13
79269;BME280;68714;48.586;7.772;2023-04-01T23:36:25;99141.88;;;8.86;66.00
79269;BME280;68714;48.586;7.772;2023-04-01T23:38:52;99142.75;;;8.87;66.16
79269;BME280;68714;48.586;7.772;2023-04-01T23:41:22;99148.91;;;8.86;66.18
79269;BME280;68714;48.586;7.772;2023-04-01T23:44:15;99151.63;;;8.84;66.37
79269;BME280;68714;48.586;7.772;2023-04-01T23:46:42;99153.34;;;8.85;66.09
79269;BME280;68714;48.586;7.772;2023-04-01T23:49:17;99155.91;;;8.87;66.04
79269;BME280;68714;48.586;7.772;2023-04-01T23:51:52;99151.53;;;8.86;66.16
79269;BME280;68714;48.586;7.772;2023-04-01T23:54:42;99155.97;;;8.85;66.46
79269;BME280;68714;48.586;7.772;2023-04-01T23:57:13;99152.59;;;8.82;66.88
79269;BME280;68714;48.586;7.772;2023-04-01T23:59:39;99154.19;;;8.86;65.97
